sensor_id;sensor_type;location;lat;lon;timestamp;pressure;altitude;pressure_sealevel;temperature;humidity
42105;BME280;70664;51.472;5.712;2023-12-04T00:01:21;101142.16;;;15.82;57.95
42105;BME280;70664;51.472;5.712;2023-12-04T00:03:47;101130.97;;;15.78;57.63
42105;BME280;70664;51.472;5.712;2023-12-04T00:06:13;101134.50;;;15.74;57.99
42105;BME280;70664;51.472;5.712;2023-12-04T00:08:40;101130.16;;;15.75;57.74
42105;BME280;70664;51.472;5.712;2023-12-04T00:11:06;101125.88;;;15.72;57.86
42105;BME280;70664;51.472;5.712;2023-12-04T00:13:32;101119.00;;;15.69;57.61
42105;BME280;70664;51.472;5.712;2023-12-04T00:15:59;101124.22;;;15.66;57.52
42105;BME280;70664;51.472;5.712;2023-12-04T00:18:25;101126.84;;;15.65;57.73
42105;BME280;70664;51.472;5.712;2023-12-04T00:20:51;101118.22;;;15.63;57.55
42105;BME280;70664;51.472;5.712;2023-12-04T00:23:17;101115.63;;;15.63;57.86
42105;BME280;70664;51.472;5.712;2023-12-04T00:25:43;101111.31;;;15.62;57.37
42105;BME280;70664;51.472;5.712;2023-12-04T00:28:09;101114.84;;;15.56;57.43
42105;BME280;70664;51.472;5.712;2023-12-04T00:30:35;101118.34;;;15.53;57.56
42105;BME280;70664;51.472;5.712;2023-12-04T00:33:01;101111.44;;;15.52;57.76
42105;BME280;70664;51.472;5.712;2023-12-04T00:35:26;101111.44;;;15.52;57.56
42105;BME280;70664;51.472;5.712;2023-12-04T00:37:52;101107.16;;;15.50;57.80
42105;BME280;70664;51.472;5.712;2023-12-04T00:40:18;101103.69;;;15.49;57.71
42105;BME280;70664;51.472;5.712;2023-12-04T00:42:43;101096.78;;;15.48;57.64
42105;BME280;70664;51.472;5.712;2023-12-04T00:45:09;101095.13;;;15.46;57.54
42105;BME280;70664;51.472;5.712;2023-12-04T00:47:35;101099.41;;;15.47;57.22
42105;BME280;70664;51.472;5.712;2023-12-04T00:50:01;101089.09;;;15.43;57.64
42105;BME280;70664;51.472;5.712;2023-12-04T00:52:27;101099.47;;;15.43;57.38
42105;BME280;70664;51.472;5.712;2023-12-04T00:54:53;101087.38;;;15.42;57.60
42105;BME280;70664;51.472;5.712;2023-12-04T00:57:19;101088.25;;;15.43;57.64
42105;BME280;70664;51.472;5.712;2023-12-04T00:59:45;101078.81;;;15.39;57.49
42105;BME280;70664;51.472;5.712;2023-12-04T01:02:10;101076.22;;;15.39;57.59
42105;BME280;70664;51.472;5.712;2023-12-04T01:04:41;101067.59;;;15.37;57.25
42105;BME280;70664;51.472;5.712;2023-12-04T01:07:07;101073.66;;;15.34;57.38
42105;BME280;70664;51.472;5.712;2023-12-04T01:09:36;101068.47;;;15.34;57.40
42105;BME280;70664;51.472;5.712;2023-12-04T01:12:02;101058.19;;;15.31;57.51
42105;BME280;70664;51.472;5.712;2023-12-04T01:14:29;101062.50;;;15.31;57.60
42105;BME280;70664;51.472;5.712;2023-12-04T01:16:56;101058.22;;;15.28;57.51
42105;BME280;70664;51.472;5.712;2023-12-04T01:19:21;101063.38;;;15.30;57.12
42105;BME280;70664;51.472;5.712;2023-12-04T01:21:47;101061.66;;;15.28;57.15
42105;BME280;70664;51.472;5.712;2023-12-04T01:24:15;101051.31;;;15.27;57.56
42105;BME280;70664;51.472;5.712;2023-12-04T01:26:41;101059.09;;;15.27;57.02
42105;BME280;70664;51.472;5.712;2023-12-04T01:29:07;101053.06;;;15.25;57.34
42105;BME280;70664;51.472;5.712;2023-12-04T01:31:33;101054.78;;;15.26;57.04
42105;BME280;70664;51.472;5.712;2023-12-04T01:33:59;101047.06;;;15.21;57.20
42105;BME280;70664;51.472;5.712;2023-12-04T01:36:25;101047.88;;;15.23;57.36
42105;BME280;70664;51.472;5.712;2023-12-04T01:38:50;101040.16;;;15.20;57.05
42105;BME280;70664;51.472;5.712;2023-12-04T01:41:16;101034.97;;;15.20;57.15
42105;BME280;70664;51.472;5.712;2023-12-04T01:43:42;101038.47;;;15.18;57.24
42105;BME280;70664;51.472;5.712;2023-12-04T01:46:08;101035.03;;;15.17;57.30
42105;BME280;70664;51.472;5.712;2023-12-04T01:48:36;101037.63;;;15.16;56.98
42105;BME280;70664;51.472;5.712;2023-12-04T01:51:06;101038.50;;;15.15;57.43
42105;BME280;70664;51.472;5.712;2023-12-04T01:53:34;101042.84;;;15.14;57.06
42105;BME280;70664;51.472;5.712;2023-12-04T01:56:00;101040.25;;;15.12;57.28
42105;BME280;70664;51.472;5.712;2023-12-04T01:58:26;101028.22;;;15.10;57.21
42105;BME280;70664;51.472;5.712;2023-12-04T02:00:52;101022.16;;;15.11;57.29
42105;BME280;70664;51.472;5.712;2023-12-04T02:03:18;101035.13;;;15.09;57.30
42105;BME280;70664;51.472;5.712;2023-12-04T02:05:44;101022.16;;;15.09;57.50
42105;BME280;70664;51.472;5.712;2023-12-04T02:08:11;101019.63;;;15.08;57.32
42105;BME280;70664;51.472;5.712;2023-12-04T02:10:37;101014.44;;;15.08;57.09
42105;BME280;70664;51.472;5.712;2023-12-04T02:13:04;101012.72;;;15.07;57.31
42105;BME280;70664;51.472;5.712;2023-12-04T02:15:30;101008.44;;;15.04;57.20
42105;BME280;70664;51.472;5.712;2023-12-04T02:17:56;100999.81;;;15.04;57.27
42105;BME280;70664;51.472;5.712;2023-12-04T02:20:34;101003.28;;;15.03;57.24
42105;BME280;70664;51.472;5.712;2023-12-04T02:23:03;100997.22;;;15.04;57.00
42105;BME280;70664;51.472;5.712;2023-12-04T02:25:32;100994.66;;;15.01;57.38
42105;BME280;70664;51.472;5.712;2023-12-04T02:28:07;100991.22;;;15.00;57.08
42105;BME280;70664;51.472;5.712;2023-12-04T02:30:37;100987.81;;;14.98;57.12
42105;BME280;70664;51.472;5.712;2023-12-04T02:33:05;100980.91;;;14.97;57.10
42105;BME280;70664;51.472;5.712;2023-12-04T02:35:34;100985.22;;;14.96;57.01
42105;BME280;70664;51.472;5.712;2023-12-04T02:38:01;100975.75;;;14.95;57.18
42105;BME280;70664;51.472;5.712;2023-12-04T02:40:28;100980.94;;;14.94;57.16
42105;BME280;70664;51.472;5.712;2023-12-04T02:42:54;100978.34;;;14.92;56.99
42105;BME280;70664;51.472;5.712;2023-12-04T02:45:20;100979.19;;;14.94;57.02
42105;BME280;70664;51.472;5.712;2023-12-04T02:47:45;100976.69;;;14.91;56.98
42105;BME280;70664;51.472;5.712;2023-12-04T02:50:11;100973.22;;;14.91;57.18
42105;BME280;70664;51.472;5.712;2023-12-04T02:52:37;100969.78;;;14.90;57.19
42105;BME280;70664;51.472;5.712;2023-12-04T02:55:03;100959.44;;;14.90;56.94
42105;BME280;70664;51.472;5.712;2023-12-04T02:57:29;100961.16;;;14.90;57.25
42105;BME280;70664;51.472;5.712;2023-12-04T02:59:55;100958.59;;;14.87;56.90
42105;BME280;70664;51.472;5.712;2023-12-04T03:02:21;100955.16;;;14.86;56.94
42105;BME280;70664;51.472;5.712;2023-12-04T03:04:47;100954.25;;;14.89;57.00
42105;BME280;70664;51.472;5.712;2023-12-04T03:07:12;100948.25;;;14.87;57.19
42105;BME280;70664;51.472;5.712;2023-12-04T03:09:38;100943.09;;;14.83;57.03
42105;BME280;70664;51.472;5.712;2023-12-04T03:12:04;100943.09;;;14.83;56.86
42105;BME280;70664;51.472;5.712;2023-12-04T03:14:30;100937.97;;;14.82;56.86
42105;BME280;70664;51.472;5.712;2023-12-04T03:16:56;100938.84;;;14.81;56.79
42105;BME280;70664;51.472;5.712;2023-12-04T03:19:22;100931.94;;;14.78;56.83
42105;BME280;70664;51.472;5.712;2023-12-04T03:21:48;100929.34;;;14.80;57.07
42105;BME280;70664;51.472;5.712;2023-12-04T03:24:14;100921.59;;;14.80;56.95
42105;BME280;70664;51.472;5.712;2023-12-04T03:26:40;100918.16;;;14.78;56.99
42105;BME280;70664;51.472;5.712;2023-12-04T03:29:06;100913.84;;;14.77;57.15
42105;BME280;70664;51.472;5.712;2023-12-04T03:31:31;100915.59;;;14.75;56.78
42105;BME280;70664;51.472;5.712;2023-12-04T03:33:59;100906.13;;;14.75;57.04
42105;BME280;70664;51.472;5.712;2023-12-04T03:36:25;100900.94;;;14.75;57.04
42105;BME280;70664;51.472;5.712;2023-12-04T03:38:51;100895.78;;;14.74;57.12
42105;BME280;70664;51.472;5.712;2023-12-04T03:41:17;100900.13;;;14.73;56.82
42105;BME280;70664;51.472;5.712;2023-12-04T03:43:43;100901.84;;;14.73;56.99
42105;BME280;70664;51.472;5.712;2023-12-04T03:46:09;100894.09;;;14.71;57.14
42105;BME280;70664;51.472;5.712;2023-12-04T03:48:34;100884.63;;;14.68;57.15
42105;BME280;70664;51.472;5.712;2023-12-04T03:51:00;100890.63;;;14.71;56.97
42105;BME280;70664;51.472;5.712;2023-12-04T03:53:26;100882.03;;;14.70;56.93
42105;BME280;70664;51.472;5.712;2023-12-04T03:55:52;100874.28;;;14.68;56.54
42105;BME280;70664;51.472;5.712;2023-12-04T03:58:18;100874.28;;;14.67;56.71
42105;BME280;70664;51.472;5.712;2023-12-04T04:00:44;100866.50;;;14.67;56.95
42105;BME280;70664;51.472;5.712;2023-12-04T04:03:10;100863.94;;;14.65;56.58
42105;BME280;70664;51.472;5.712;2023-12-04T04:05:36;100861.34;;;14.65;56.80
42105;BME280;70664;51.472;5.712;2023-12-04T04:08:03;100851.06;;;14.62;56.80
42105;BME280;70664;51.472;5.712;2023-12-04T04:10:28;100850.19;;;14.63;56.89
42105;BME280;70664;51.472;5.712;2023-12-04T04:12:54;100844.13;;;14.63;56.98
42105;BME280;70664;51.472;5.712;2023-12-04T04:15:20;100845.03;;;14.60;56.97
42105;BME280;70664;51.472;5.712;2023-12-04T04:17:46;100841.59;;;14.61;56.81
42105;BME280;70664;51.472;5.712;2023-12-04T04:20:12;100840.75;;;14.59;56.90
42105;BME280;70664;51.472;5.712;2023-12-04T04:22:38;100841.59;;;14.60;56.85
42105;BME280;70664;51.472;5.712;2023-12-04T04:25:07;100832.97;;;14.59;56.61
42105;BME280;70664;51.472;5.712;2023-12-04T04:27:33;100833.84;;;14.58;57.01
42105;BME280;70664;51.472;5.712;2023-12-04T04:30:00;100826.13;;;14.55;56.96
42105;BME280;70664;51.472;5.712;2023-12-04T04:32:26;100821.81;;;14.56;56.73
42105;BME280;70664;51.472;5.712;2023-12-04T04:34:51;100819.22;;;14.56;56.74
42105;BME280;70664;51.472;5.712;2023-12-04T04:37:18;100820.97;;;14.55;56.78
42105;BME280;70664;51.472;5.712;2023-12-04T04:39:44;100824.44;;;14.54;56.83
42105;BME280;70664;51.472;5.712;2023-12-04T04:42:10;100821.00;;;14.50;56.57
42105;BME280;70664;51.472;5.712;2023-12-04T04:44:35;100817.53;;;14.51;56.83
42105;BME280;70664;51.472;5.712;2023-12-04T04:47:01;100817.53;;;14.51;56.58
42105;BME280;70664;51.472;5.712;2023-12-04T04:49:27;100808.94;;;14.51;56.99
42105;BME280;70664;51.472;5.712;2023-12-04T04:51:53;100814.16;;;14.49;56.90
42105;BME280;70664;51.472;5.712;2023-12-04T04:54:19;100808.09;;;14.49;56.72
42105;BME280;70664;51.472;5.712;2023-12-04T04:56:45;100804.69;;;14.48;57.01
42105;BME280;70664;51.472;5.712;2023-12-04T04:59:11;100799.50;;;14.47;56.68
42105;BME280;70664;51.472;5.712;2023-12-04T05:01:36;100803.84;;;14.46;56.63
42105;BME280;70664;51.472;5.712;2023-12-04T05:04:03;100810.72;;;14.46;56.79
42105;BME280;70664;51.472;5.712;2023-12-04T05:06:29;100803.84;;;14.45;56.88
42105;BME280;70664;51.472;5.712;2023-12-04T05:08:55;100799.53;;;14.44;56.81
42105;BME280;70664;51.472;5.712;2023-12-04T05:11:21;100803.00;;;14.44;56.76
42105;BME280;70664;51.472;5.712;2023-12-04T05:13:47;100805.59;;;14.44;56.72
42105;BME280;70664;51.472;5.712;2023-12-04T05:16:14;100798.69;;;14.42;56.61
42105;BME280;70664;51.472;5.712;2023-12-04T05:18:39;100797.81;;;14.43;56.64
42105;BME280;70664;51.472;5.712;2023-12-04T05:21:09;100805.63;;;14.41;56.85
42105;BME280;70664;51.472;5.712;2023-12-04T05:23:38;100797.88;;;14.39;56.59
42105;BME280;70664;51.472;5.712;2023-12-04T05:26:07;100789.25;;;14.39;56.64
42105;BME280;70664;51.472;5.712;2023-12-04T05:28:34;100787.56;;;14.38;56.54
42105;BME280;70664;51.472;5.712;2023-12-04T05:31:00;100788.44;;;14.37;56.55
42105;BME280;70664;51.472;5.712;2023-12-04T05:33:26;100783.25;;;14.37;56.82
42105;BME280;70664;51.472;5.712;2023-12-04T05:35:52;100785.84;;;14.37;56.58
42105;BME280;70664;51.472;5.712;2023-12-04T05:38:19;100781.53;;;14.36;56.43
42105;BME280;70664;51.472;5.712;2023-12-04T05:40:45;100777.25;;;14.35;56.71
42105;BME280;70664;51.472;5.712;2023-12-04T05:43:11;100773.78;;;14.36;56.81
42105;BME280;70664;51.472;5.712;2023-12-04T05:45:37;100765.19;;;14.35;56.36
42105;BME280;70664;51.472;5.712;2023-12-04T05:48:03;100761.75;;;14.33;56.60
42105;BME280;70664;51.472;5.712;2023-12-04T05:50:29;100757.44;;;14.34;56.53
42105;BME280;70664;51.472;5.712;2023-12-04T05:52:54;100754.00;;;14.32;56.41
42105;BME280;70664;51.472;5.712;2023-12-04T05:55:20;100751.41;;;14.32;56.43
42105;BME280;70664;51.472;5.712;2023-12-04T05:57:46;100755.75;;;14.30;56.70
42105;BME280;70664;51.472;5.712;2023-12-04T06:00:13;100757.47;;;14.32;56.48
42105;BME280;70664;51.472;5.712;2023-12-04T06:02:43;100753.16;;;14.30;56.44
42105;BME280;70664;51.472;5.712;2023-12-04T06:05:09;100757.50;;;14.29;56.38
42105;BME280;70664;51.472;5.712;2023-12-04T06:07:36;100749.75;;;14.29;56.37
42105;BME280;70664;51.472;5.712;2023-12-04T06:10:03;100737.69;;;14.28;56.53
42105;BME280;70664;51.472;5.712;2023-12-04T06:12:30;100736.84;;;14.26;56.75
42105;BME280;70664;51.472;5.712;2023-12-04T06:14:56;100728.22;;;14.26;56.53
42105;BME280;70664;51.472;5.712;2023-12-04T06:17:24;100736.84;;;14.26;56.63
42105;BME280;70664;51.472;5.712;2023-12-04T06:19:50;100734.28;;;14.24;56.38
42105;BME280;70664;51.472;5.712;2023-12-04T06:22:16;100731.72;;;14.23;56.44
42105;BME280;70664;51.472;5.712;2023-12-04T06:24:44;100729.97;;;14.23;56.38
42105;BME280;70664;51.472;5.712;2023-12-04T06:27:18;100723.09;;;14.22;56.48
42105;BME280;70664;51.472;5.712;2023-12-04T06:29:47;100722.28;;;14.20;56.56
42105;BME280;70664;51.472;5.712;2023-12-04T06:32:13;100718.84;;;14.20;56.41
42105;BME280;70664;51.472;5.712;2023-12-04T06:34:39;100702.41;;;14.22;56.29
42105;BME280;70664;51.472;5.712;2023-12-04T06:37:13;100696.44;;;14.19;56.42
42105;BME280;70664;51.472;5.712;2023-12-04T06:39:40;100688.72;;;14.17;56.55
42105;BME280;70664;51.472;5.712;2023-12-04T06:42:11;100689.56;;;14.18;56.36
42105;BME280;70664;51.472;5.712;2023-12-04T06:44:37;100691.31;;;14.16;56.50
42105;BME280;70664;51.472;5.712;2023-12-04T06:47:04;100677.50;;;14.17;56.45
42105;BME280;70664;51.472;5.712;2023-12-04T06:49:32;100674.06;;;14.15;56.33
42105;BME280;70664;51.472;5.712;2023-12-04T06:51:59;100667.19;;;14.15;56.42
42105;BME280;70664;51.472;5.712;2023-12-04T06:54:25;100665.47;;;14.14;56.43
42105;BME280;70664;51.472;5.712;2023-12-04T06:56:51;100662.03;;;14.14;56.52
42105;BME280;70664;51.472;5.712;2023-12-04T06:59:20;100660.31;;;14.13;56.43
42105;BME280;70664;51.472;5.712;2023-12-04T07:01:46;100656.84;;;14.14;56.20
42105;BME280;70664;51.472;5.712;2023-12-04T07:04:12;100660.31;;;14.13;56.41
42105;BME280;70664;51.472;5.712;2023-12-04T07:06:39;100645.72;;;14.10;56.47
42105;BME280;70664;51.472;5.712;2023-12-04T07:09:06;100631.91;;;14.09;56.47
42105;BME280;70664;51.472;5.712;2023-12-04T07:11:35;100631.09;;;14.09;56.21
42105;BME280;70664;51.472;5.712;2023-12-04T07:14:01;100626.75;;;14.09;56.23
42105;BME280;70664;51.472;5.712;2023-12-04T07:16:27;100650.00;;;14.09;56.14
42105;BME280;70664;51.472;5.712;2023-12-04T07:18:53;100650.88;;;14.08;56.22
42105;BME280;70664;51.472;5.712;2023-12-04T07:21:19;100658.66;;;14.08;56.39
42105;BME280;70664;51.472;5.712;2023-12-04T07:23:45;100658.66;;;14.08;56.14
42105;BME280;70664;51.472;5.712;2023-12-04T07:26:11;100662.16;;;14.06;56.05
42105;BME280;70664;51.472;5.712;2023-12-04T07:28:37;100658.72;;;14.05;56.24
42105;BME280;70664;51.472;5.712;2023-12-04T07:31:03;100656.13;;;14.04;56.38
42105;BME280;70664;51.472;5.712;2023-12-04T07:33:29;100654.41;;;14.04;56.19
42105;BME280;70664;51.472;5.712;2023-12-04T07:35:55;100654.38;;;14.06;56.22
42105;BME280;70664;51.472;5.712;2023-12-04T07:38:21;100655.28;;;14.03;56.31
42105;BME280;70664;51.472;5.712;2023-12-04T07:40:47;100648.38;;;14.04;55.99
42105;BME280;70664;51.472;5.712;2023-12-04T07:43:12;100652.72;;;14.02;56.18
42105;BME280;70664;51.472;5.712;2023-12-04T07:45:43;100652.75;;;14.00;56.03
42105;BME280;70664;51.472;5.712;2023-12-04T07:48:09;100649.28;;;14.01;56.04
42105;BME280;70664;51.472;5.712;2023-12-04T07:50:35;100651.88;;;14.00;56.16
42105;BME280;70664;51.472;5.712;2023-12-04T07:53:03;100643.28;;;13.99;55.91
42105;BME280;70664;51.472;5.712;2023-12-04T07:55:29;100644.13;;;14.00;56.04
42105;BME280;70664;51.472;5.712;2023-12-04T07:57:55;100645.84;;;14.01;56.23
42105;BME280;70664;51.472;5.712;2023-12-04T08:00:22;100632.06;;;13.99;56.34
42105;BME280;70664;51.472;5.712;2023-12-04T08:02:48;100639.00;;;13.98;56.05
42105;BME280;70664;51.472;5.712;2023-12-04T08:05:14;100639.88;;;13.97;56.38
42105;BME280;70664;51.472;5.712;2023-12-04T08:07:40;100642.44;;;13.97;55.99
42105;BME280;70664;51.472;5.712;2023-12-04T08:10:07;100635.56;;;13.96;55.89
42105;BME280;70664;51.472;5.712;2023-12-04T08:12:33;100630.41;;;13.94;56.15
42105;BME280;70664;51.472;5.712;2023-12-04T08:14:59;100622.69;;;13.93;56.36
42105;BME280;70664;51.472;5.712;2023-12-04T08:17:25;100625.25;;;13.94;56.13
42105;BME280;70664;51.472;5.712;2023-12-04T08:19:51;100626.16;;;13.93;56.17
42105;BME280;70664;51.472;5.712;2023-12-04T08:22:17;100622.66;;;13.94;55.92
42105;BME280;70664;51.472;5.712;2023-12-04T08:24:43;100621.81;;;13.94;56.16
42105;BME280;70664;51.472;5.712;2023-12-04T08:27:08;100623.56;;;13.92;56.11
42105;BME280;70664;51.472;5.712;2023-12-04T08:29:34;100616.69;;;13.91;56.04
42105;BME280;70664;51.472;5.712;2023-12-04T08:32:00;100613.22;;;13.93;56.05
42105;BME280;70664;51.472;5.712;2023-12-04T08:34:26;100617.53;;;13.93;56.27
42105;BME280;70664;51.472;5.712;2023-12-04T08:36:52;100614.09;;;13.92;56.13
42105;BME280;70664;51.472;5.712;2023-12-04T08:39:18;100608.06;;;13.92;56.69
42105;BME280;70664;51.472;5.712;2023-12-04T08:41:47;100601.97;;;13.94;56.79
42105;BME280;70664;51.472;5.712;2023-12-04T08:44:14;100595.13;;;13.92;56.87
42105;BME280;70664;51.472;5.712;2023-12-04T08:46:39;100601.19;;;13.92;56.72
42105;BME280;70664;51.472;5.712;2023-12-04T08:49:06;100590.84;;;13.92;56.89
42105;BME280;70664;51.472;5.712;2023-12-04T08:51:32;100591.63;;;13.94;56.85
42105;BME280;70664;51.472;5.712;2023-12-04T08:53:58;100585.66;;;13.92;56.78
42105;BME280;70664;51.472;5.712;2023-12-04T08:56:23;100587.31;;;13.97;57.00
42105;BME280;70664;51.472;5.712;2023-12-04T08:58:49;100581.25;;;13.99;56.82
42105;BME280;70664;51.472;5.712;2023-12-04T09:01:16;100572.56;;;14.03;57.17
42105;BME280;70664;51.472;5.712;2023-12-04T09:03:42;100574.28;;;14.04;57.05
42105;BME280;70664;51.472;5.712;2023-12-04T09:06:08;100571.66;;;14.06;56.90
42105;BME280;70664;51.472;5.712;2023-12-04T09:08:34;100572.63;;;13.99;57.63
42105;BME280;70664;51.472;5.712;2023-12-04T09:11:00;100573.44;;;14.02;57.12
42105;BME280;70664;51.472;5.712;2023-12-04T09:13:26;100568.44;;;13.91;57.76
42105;BME280;70664;51.472;5.712;2023-12-04T09:15:52;100574.47;;;13.92;57.98
42105;BME280;70664;51.472;5.712;2023-12-04T09:18:18;100567.53;;;13.94;57.68
42105;BME280;70664;51.472;5.712;2023-12-04T09:20:44;100564.91;;;13.97;57.78
42105;BME280;70664;51.472;5.712;2023-12-04T09:23:09;100564.03;;;13.97;58.31
42105;BME280;70664;51.472;5.712;2023-12-04T09:25:36;100563.13;;;14.02;58.09
42105;BME280;70664;51.472;5.712;2023-12-04T09:28:02;100558.53;;;14.20;57.94
42105;BME280;70664;51.472;5.712;2023-12-04T09:30:28;100558.34;;;14.32;57.56
42105;BME280;70664;51.472;5.712;2023-12-04T09:32:54;100560.94;;;14.31;57.92
42105;BME280;70664;51.472;5.712;2023-12-04T09:35:20;100557.56;;;14.27;58.15
42105;BME280;70664;51.472;5.712;2023-12-04T09:37:45;100553.94;;;14.36;58.05
42105;BME280;70664;51.472;5.712;2023-12-04T09:40:12;100552.19;;;14.36;58.28
42105;BME280;70664;51.472;5.712;2023-12-04T09:42:39;100553.16;;;14.31;58.58
42105;BME280;70664;51.472;5.712;2023-12-04T09:45:07;100552.94;;;14.45;58.17
42105;BME280;70664;51.472;5.712;2023-12-04T09:47:34;100552.09;;;14.44;58.36
42105;BME280;70664;51.472;5.712;2023-12-04T09:50:00;100543.66;;;14.34;58.45
42105;BME280;70664;51.472;5.712;2023-12-04T09:52:29;100550.38;;;14.43;58.15
42105;BME280;70664;51.472;5.712;2023-12-04T09:54:56;100548.56;;;14.48;57.75
42105;BME280;70664;51.472;5.712;2023-12-04T09:57:23;100544.00;;;14.63;57.48
42105;BME280;70664;51.472;5.712;2023-12-04T09:59:51;100544.97;;;14.57;57.44
42105;BME280;70664;51.472;5.712;2023-12-04T10:02:19;100545.84;;;14.56;57.22
42105;BME280;70664;51.472;5.712;2023-12-04T10:04:45;100540.63;;;14.58;57.31
42105;BME280;70664;51.472;5.712;2023-12-04T10:07:11;100540.34;;;14.76;56.75
42105;BME280;70664;51.472;5.712;2023-12-04T10:09:37;100542.00;;;14.79;56.82
42105;BME280;70664;51.472;5.712;2023-12-04T10:12:05;100525.81;;;14.66;57.57
42105;BME280;70664;51.472;5.712;2023-12-04T10:14:31;100530.00;;;14.76;57.00
42105;BME280;70664;51.472;5.712;2023-12-04T10:16:57;100527.34;;;14.78;56.78
42105;BME280;70664;51.472;5.712;2023-12-04T10:19:26;100524.59;;;14.87;57.11
42105;BME280;70664;51.472;5.712;2023-12-04T10:21:58;100522.91;;;14.85;57.09
42105;BME280;70664;51.472;5.712;2023-12-04T10:24:36;100519.44;;;14.87;56.94
42105;BME280;70664;51.472;5.712;2023-12-04T10:27:03;100515.97;;;14.87;56.57
42105;BME280;70664;51.472;5.712;2023-12-04T10:29:49;100513.25;;;14.93;56.74
42105;BME280;70664;51.472;5.712;2023-12-04T10:32:19;100509.81;;;14.92;56.67
42105;BME280;70664;51.472;5.712;2023-12-04T10:34:49;100507.22;;;14.92;56.96
42105;BME280;70664;51.472;5.712;2023-12-04T10:37:15;100498.56;;;14.93;56.93
42105;BME280;70664;51.472;5.712;2023-12-04T10:39:50;100486.38;;;14.98;56.75
42105;BME280;70664;51.472;5.712;2023-12-04T10:42:36;100481.31;;;14.94;57.03
42105;BME280;70664;51.472;5.712;2023-12-04T10:45:02;100482.97;;;14.98;56.59
42105;BME280;70664;51.472;5.712;2023-12-04T10:47:33;100477.78;;;14.98;56.60
42105;BME280;70664;51.472;5.712;2023-12-04T10:50:00;100468.38;;;14.94;56.64
42105;BME280;70664;51.472;5.712;2023-12-04T10:52:28;100469.13;;;14.99;56.29
42105;BME280;70664;51.472;5.712;2023-12-04T10:54:55;100458.03;;;14.92;56.35
42105;BME280;70664;51.472;5.712;2023-12-04T10:57:31;100460.50;;;14.98;56.30
42105;BME280;70664;51.472;5.712;2023-12-04T11:00:04;100452.78;;;14.95;56.44
42105;BME280;70664;51.472;5.712;2023-12-04T11:02:34;100449.25;;;15.00;56.01
42105;BME280;70664;51.472;5.712;2023-12-04T11:05:16;100442.44;;;14.95;55.88
42105;BME280;70664;51.472;5.712;2023-12-04T11:08:15;100436.38;;;14.96;55.77
42105;BME280;70664;51.472;5.712;2023-12-04T11:10:48;100437.13;;;15.02;55.81
42105;BME280;70664;51.472;5.712;2023-12-04T11:13:21;100428.63;;;14.96;56.00
42105;BME280;70664;51.472;5.712;2023-12-04T11:15:49;100431.19;;;14.98;55.91
42105;BME280;70664;51.472;5.712;2023-12-04T11:18:16;100428.56;;;15.00;55.91
42105;BME280;70664;51.472;5.712;2023-12-04T11:20:54;100430.19;;;15.05;55.77
42105;BME280;70664;51.472;5.712;2023-12-04T11:23:23;100421.59;;;15.02;55.75
42105;BME280;70664;51.472;5.712;2023-12-04T11:25:49;100425.09;;;15.01;55.85
42105;BME280;70664;51.472;5.712;2023-12-04T11:28:16;100417.22;;;15.05;55.86
42105;BME280;70664;51.472;5.712;2023-12-04T11:30:43;100411.19;;;15.05;56.01
42105;BME280;70664;51.472;5.712;2023-12-04T11:33:09;100411.25;;;15.03;55.70
42105;BME280;70664;51.472;5.712;2023-12-04T11:35:38;100417.31;;;15.01;55.90
42105;BME280;70664;51.472;5.712;2023-12-04T11:38:07;100414.78;;;14.97;55.71
42105;BME280;70664;51.472;5.712;2023-12-04T11:40:35;100409.53;;;15.02;55.60
42105;BME280;70664;51.472;5.712;2023-12-04T11:43:26;100399.19;;;15.02;55.86
42105;BME280;70664;51.472;5.712;2023-12-04T11:45:53;100401.84;;;14.97;56.03
42105;BME280;70664;51.472;5.712;2023-12-04T11:48:32;100396.78;;;15.32;54.85
42105;BME280;70664;51.472;5.712;2023-12-04T11:50:59;100384.03;;;15.23;55.06
42105;BME280;70664;51.472;5.712;2023-12-04T11:53:26;100381.47;;;15.21;54.55
42105;BME280;70664;51.472;5.712;2023-12-04T11:55:55;100376.13;;;15.27;54.60
42105;BME280;70664;51.472;5.712;2023-12-04T11:58:24;100372.84;;;15.21;54.72
42105;BME280;70664;51.472;5.712;2023-12-04T12:00:52;100363.44;;;15.17;55.02
42105;BME280;70664;51.472;5.712;2023-12-04T12:03:18;100363.59;;;15.10;55.16
42105;BME280;70664;51.472;5.712;2023-12-04T12:05:49;100351.50;;;15.11;54.98
42105;BME280;70664;51.472;5.712;2023-12-04T12:08:16;100337.81;;;15.06;55.18
42105;BME280;70664;51.472;5.712;2023-12-04T12:10:42;100337.81;;;15.06;55.02
42105;BME280;70664;51.472;5.712;2023-12-04T12:13:10;100337.03;;;15.02;55.69
42105;BME280;70664;51.472;5.712;2023-12-04T12:15:37;100323.94;;;15.08;55.10
42105;BME280;70664;51.472;5.712;2023-12-04T12:18:03;100322.28;;;15.06;55.35
42105;BME280;70664;51.472;5.712;2023-12-04T12:20:31;100317.97;;;15.05;55.51
42105;BME280;70664;51.472;5.712;2023-12-04T12:22:57;100306.69;;;15.07;55.26
42105;BME280;70664;51.472;5.712;2023-12-04T12:25:24;100299.22;;;14.95;55.57
42105;BME280;70664;51.472;5.712;2023-12-04T12:27:50;100291.34;;;15.00;55.39
42105;BME280;70664;51.472;5.712;2023-12-04T12:30:16;100287.88;;;15.01;55.39
42105;BME280;70664;51.472;5.712;2023-12-04T12:32:42;100280.94;;;15.03;55.28
42105;BME280;70664;51.472;5.712;2023-12-04T12:35:08;100279.06;;;15.08;55.18
42105;BME280;70664;51.472;5.712;2023-12-04T12:37:35;100279.09;;;15.06;55.42
42105;BME280;70664;51.472;5.712;2023-12-04T12:40:00;100279.97;;;15.07;55.41
42105;BME280;70664;51.472;5.712;2023-12-04T12:42:29;100286.97;;;15.03;55.84
42105;BME280;70664;51.472;5.712;2023-12-04T12:44:56;100282.63;;;15.04;55.87
42105;BME280;70664;51.472;5.712;2023-12-04T12:47:25;100277.38;;;15.07;56.05
42105;BME280;70664;51.472;5.712;2023-12-04T12:49:52;100274.97;;;14.99;55.96